createdAt,value
2022-12-05T00:01:03.262Z,44.21
2022-12-05T00:02:24.264Z,42.61
2022-12-05T00:03:45.760Z,43.20
2022-12-05T00:05:08.397Z,42.39
2022-12-05T00:06:29.809Z,47.69
2022-12-05T00:07:50.957Z,47.25
2022-12-05T00:09:14.869Z,46.88
2022-12-05T00:10:35.858Z,48.61
2022-12-05T00:11:57.756Z,46.89
2022-12-05T00:13:16.605Z,43.71
2022-12-05T00:14:37.553Z,44.96
2022-12-05T00:15:55.883Z,44.83
2022-12-05T00:17:16.812Z,44.26
2022-12-05T00:18:35.247Z,46.37
2022-12-05T00:19:57.072Z,45.60
2022-12-05T00:21:19.388Z,45.83
2022-12-05T00:22:41.665Z,48.35
2022-12-05T00:24:02.599Z,46.98
2022-12-05T00:25:26.507Z,45.35
2022-12-05T00:26:48.131Z,47.35
2022-12-05T00:28:06.611Z,43.99
2022-12-05T00:29:28.210Z,49.39
2022-12-05T00:30:46.509Z,49.45
2022-12-05T00:32:07.673Z,53.81
2022-12-05T00:33:25.886Z,53.05
2022-12-05T00:34:46.902Z,56.18
2022-12-05T00:36:08.572Z,50.24
2022-12-05T00:37:32.688Z,48.73
2022-12-05T00:38:52.359Z,48.30
2022-12-05T00:40:13.983Z,52.50
2022-12-05T00:41:35.203Z,54.08
2022-12-05T00:42:56.761Z,47.63
2022-12-05T00:44:15.051Z,48.39
2022-12-05T00:45:37.476Z,50.35
2022-12-05T00:46:55.695Z,48.89
2022-12-05T00:48:16.701Z,45.44
2022-12-05T00:49:35.098Z,49.68
2022-12-05T00:51:05.469Z,45.13
2022-12-05T00:52:26.601Z,45.88
2022-12-05T00:53:46.374Z,47.47
2022-12-05T00:55:08.213Z,45.68
2022-12-05T00:56:29.544Z,45.43
2022-12-05T00:57:53.111Z,43.60
2022-12-05T00:59:20.596Z,43.50
2022-12-05T01:00:39.124Z,43.76
2022-12-05T01:02:00.542Z,44.72
2022-12-05T01:03:19.025Z,45.36
2022-12-05T01:04:40.382Z,44.25
2022-12-05T01:06:00.549Z,43.47
2022-12-05T01:07:21.666Z,44.56
2022-12-05T01:08:40.509Z,45.45
2022-12-05T01:10:01.412Z,45.13
2022-12-05T01:11:21.300Z,47.94
2022-12-05T01:12:42.494Z,54.79
2022-12-05T01:14:03.680Z,50.11
2022-12-05T01:15:24.679Z,48.92
2022-12-05T01:16:46.912Z,47.85
2022-12-05T01:18:08.277Z,47.81
2022-12-05T01:19:33.106Z,45.64
2022-12-05T01:20:53.285Z,44.16
2022-12-05T01:22:14.230Z,45.51
2022-12-05T01:23:32.645Z,46.02
2022-12-05T01:24:53.574Z,44.28
2022-12-05T01:26:15.953Z,46.65
2022-12-05T01:27:37.005Z,44.48
2022-12-05T01:28:56.831Z,44.69
2022-12-05T01:30:20.610Z,44.48
2022-12-05T01:31:42.648Z,42.35
2022-12-05T01:33:00.955Z,38.76
2022-12-05T01:34:23.391Z,41.51
2022-12-05T01:35:42.942Z,43.81
2022-12-05T01:37:04.076Z,43.73
2022-12-05T01:38:22.296Z,43.68
2022-12-05T01:39:43.233Z,41.67
2022-12-05T01:41:03.351Z,41.73
2022-12-05T01:42:26.331Z,44.58
2022-12-05T01:44:00.645Z,44.70
2022-12-05T01:45:35.724Z,42.37
2022-12-05T01:46:55.270Z,40.22
2022-12-05T01:48:22.918Z,40.55
2022-12-05T01:49:44.164Z,43.83
2022-12-05T01:51:06.557Z,42.64
2022-12-05T01:52:31.680Z,41.26
2022-12-05T01:53:52.916Z,40.29
2022-12-05T01:55:18.217Z,41.41
2022-12-05T01:56:43.407Z,41.10
2022-12-05T01:58:05.784Z,42.97
2022-12-05T01:59:31.454Z,43.14
2022-12-05T02:00:52.578Z,45.70
2022-12-05T02:02:16.544Z,45.66
2022-12-05T02:03:38.286Z,47.40
2022-12-05T02:05:08.661Z,47.08
2022-12-05T02:06:31.506Z,46.28
2022-12-05T02:07:50.186Z,45.95
2022-12-05T02:09:11.203Z,44.25
2022-12-05T02:10:37.055Z,41.51
2022-12-05T02:12:03.986Z,41.53
2022-12-05T02:14:19.584Z,42.54
2022-12-05T02:15:52.412Z,43.82
2022-12-05T02:17:39.470Z,44.89
2022-12-05T02:19:28.975Z,55.63
2022-12-05T02:21:01.016Z,50.78
2022-12-05T02:23:00.377Z,43.93
2022-12-05T02:24:59.060Z,41.69
2022-12-05T02:26:51.206Z,40.27
2022-12-05T02:28:39.338Z,38.69
2022-12-05T02:30:11.186Z,40.68
2022-12-05T02:31:27.740Z,39.38
2022-12-05T02:33:10.193Z,40.00
2022-12-05T02:34:28.358Z,41.42
2022-12-05T02:35:54.381Z,40.12
2022-12-05T02:37:13.807Z,41.37
2022-12-05T02:38:33.227Z,42.04
2022-12-05T02:39:47.946Z,42.18
2022-12-05T02:41:09.311Z,41.74
2022-12-05T02:42:28.889Z,40.69
2022-12-05T02:43:46.083Z,41.48
2022-12-05T02:45:02.073Z,38.95
2022-12-05T02:46:17.368Z,39.73
2022-12-05T02:47:31.268Z,40.21
2022-12-05T02:48:41.823Z,41.93
2022-12-05T02:49:45.755Z,41.96
2022-12-05T02:50:57.842Z,42.84
2022-12-05T02:52:08.482Z,41.72
2022-12-05T02:53:20.793Z,39.85
2022-12-05T02:54:34.414Z,41.57
2022-12-05T02:55:44.943Z,42.54
2022-12-05T02:56:55.609Z,41.22
2022-12-05T02:58:10.351Z,41.59
2022-12-05T02:59:19.898Z,42.28
2022-12-05T03:00:31.788Z,40.33
2022-12-05T03:01:35.528Z,40.96
2022-12-05T03:02:44.750Z,40.64
2022-12-05T03:03:49.678Z,38.21
2022-12-05T03:05:01.217Z,39.53
2022-12-05T03:06:13.822Z,39.20
2022-12-05T03:07:26.701Z,40.39
2022-12-05T03:08:38.106Z,40.78
2022-12-05T03:09:52.783Z,39.05
2022-12-05T03:11:03.615Z,39.99
2022-12-05T03:12:19.279Z,40.83
2022-12-05T03:13:33.174Z,40.74
2022-12-05T03:14:50.116Z,40.13
2022-12-05T03:16:15.246Z,38.61
2022-12-05T03:17:25.193Z,39.63
2022-12-05T03:18:39.326Z,39.04
2022-12-05T03:19:58.426Z,37.96
2022-12-05T03:21:19.080Z,38.53
2022-12-05T03:22:33.177Z,37.44
2022-12-05T03:23:49.146Z,39.80
2022-12-05T03:24:53.811Z,42.01
2022-12-05T03:26:15.220Z,43.12
2022-12-05T03:27:34.726Z,39.42
2022-12-05T03:29:00.451Z,41.08
2022-12-05T03:30:13.165Z,38.37
2022-12-05T03:31:37.856Z,40.53
2022-12-05T03:32:54.836Z,39.53
2022-12-05T03:34:04.124Z,39.66
2022-12-05T03:35:23.831Z,39.77
2022-12-05T03:36:41.170Z,39.96
2022-12-05T03:37:56.739Z,38.50
2022-12-05T03:39:11.217Z,37.05
2022-12-05T03:40:30.796Z,38.25
2022-12-05T03:41:43.233Z,58.28
2022-12-05T03:43:05.717Z,44.77
2022-12-05T03:44:18.610Z,44.89
2022-12-05T03:45:39.829Z,49.84
2022-12-05T03:46:57.092Z,52.43
2022-12-05T03:48:17.897Z,51.53
2022-12-05T03:49:34.131Z,45.49
2022-12-05T03:50:51.083Z,43.13
2022-12-05T03:52:07.671Z,39.52
2022-12-05T03:53:26.206Z,39.75
2022-12-05T03:54:38.652Z,39.31
2022-12-05T03:56:05.056Z,39.71
2022-12-05T03:57:17.825Z,40.07
2022-12-05T03:58:34.693Z,40.25
2022-12-05T03:59:50.196Z,36.36
2022-12-05T04:01:02.475Z,36.24
2022-12-05T04:02:19.017Z,35.31
2022-12-05T04:03:40.067Z,38.60
2022-12-05T04:04:55.111Z,35.33
2022-12-05T04:06:07.170Z,36.76
2022-12-05T04:07:18.357Z,36.59
2022-12-05T04:08:30.272Z,36.49
2022-12-05T04:09:48.060Z,37.46
2022-12-05T04:10:59.860Z,36.45
2022-12-05T04:12:13.763Z,37.68
2022-12-05T04:13:25.923Z,37.58
2022-12-05T04:14:43.695Z,38.48
2022-12-05T04:16:15.784Z,38.51
2022-12-05T04:17:34.249Z,37.74
2022-12-05T04:18:50.683Z,40.07
2022-12-05T04:20:16.512Z,39.23
2022-12-05T04:21:41.511Z,40.49
2022-12-05T04:22:49.127Z,39.57
2022-12-05T04:24:08.746Z,39.72
2022-12-05T04:25:33.018Z,39.25
2022-12-05T04:26:53.724Z,36.86
2022-12-05T04:28:21.437Z,37.72
2022-12-05T04:29:35.613Z,36.99
2022-12-05T04:30:53.774Z,38.65
2022-12-05T04:32:07.251Z,39.98
2022-12-05T04:33:32.442Z,38.18
2022-12-05T04:34:42.212Z,37.40
2022-12-05T04:35:57.782Z,38.89
2022-12-05T04:37:13.049Z,38.85
2022-12-05T04:38:29.848Z,38.16
2022-12-05T04:39:46.982Z,39.63
2022-12-05T04:41:02.320Z,41.35
2022-12-05T04:42:15.027Z,39.49
2022-12-05T04:43:25.986Z,39.85
2022-12-05T04:44:38.317Z,42.59
2022-12-05T04:45:47.935Z,40.94
2022-12-05T04:46:57.746Z,41.49
2022-12-05T04:48:17.224Z,41.73
2022-12-05T04:49:29.820Z,41.46
2022-12-05T04:50:42.829Z,42.55
2022-12-05T04:51:53.181Z,43.16
2022-12-05T04:53:04.291Z,43.07
2022-12-05T04:54:26.699Z,41.67
2022-12-05T04:55:42.679Z,44.15
2022-12-05T04:56:58.124Z,42.36
2022-12-05T04:58:14.609Z,43.41
2022-12-05T04:59:21.621Z,45.93
2022-12-05T05:00:29.197Z,43.86
2022-12-05T05:01:43.547Z,44.81
2022-12-05T05:02:59.217Z,46.41
2022-12-05T05:04:14.139Z,48.93
2022-12-05T05:05:24.944Z,47.59
2022-12-05T05:06:29.373Z,49.25
2022-12-05T05:07:35.506Z,47.89
2022-12-05T05:08:49.863Z,47.48
2022-12-05T05:09:56.409Z,49.11
2022-12-05T05:11:15.948Z,49.69
2022-12-05T05:12:22.105Z,48.32
2022-12-05T05:13:26.238Z,49.38
2022-12-05T05:14:32.893Z,50.18
2022-12-05T05:15:36.641Z,50.46
2022-12-05T05:16:47.732Z,50.97
2022-12-05T05:17:51.172Z,49.79
2022-12-05T05:18:58.079Z,47.81
2022-12-05T05:20:20.323Z,48.90
2022-12-05T05:21:30.269Z,50.53
2022-12-05T05:22:34.684Z,49.28
2022-12-05T05:23:40.807Z,49.03
2022-12-05T05:24:44.297Z,48.01
2022-12-05T05:25:57.758Z,48.55
2022-12-05T05:27:01.316Z,50.59
2022-12-05T05:28:08.999Z,49.18
2022-12-05T05:29:14.775Z,48.07
2022-12-05T05:30:23.039Z,51.90
2022-12-05T05:31:27.628Z,50.17
2022-12-05T05:32:36.080Z,48.69
2022-12-05T05:33:44.393Z,49.40
2022-12-05T05:34:48.060Z,46.53
2022-12-05T05:35:56.872Z,47.81
2022-12-05T05:37:02.519Z,46.52
2022-12-05T05:38:09.050Z,45.73
2022-12-05T05:39:15.537Z,47.19
2022-12-05T05:40:23.639Z,45.49
2022-12-05T05:41:32.981Z,45.42
2022-12-05T05:42:39.646Z,43.75
2022-12-05T05:43:45.164Z,44.71
2022-12-05T05:44:52.155Z,45.86
2022-12-05T05:45:55.828Z,45.97
2022-12-05T05:47:02.794Z,44.35
2022-12-05T05:48:07.188Z,45.04
2022-12-05T05:49:13.989Z,43.32
2022-12-05T05:50:21.717Z,44.13
2022-12-05T05:51:32.465Z,41.02
2022-12-05T05:52:38.566Z,41.68
2022-12-05T05:53:45.333Z,41.30
2022-12-05T05:54:48.972Z,39.56
2022-12-05T05:55:56.253Z,39.21
2022-12-05T05:56:59.783Z,40.36
2022-12-05T05:58:06.015Z,42.39
2022-12-05T05:59:13.265Z,41.23
2022-12-05T06:00:18.303Z,41.67
2022-12-05T06:01:25.676Z,38.90
2022-12-05T06:02:34.082Z,38.40
2022-12-05T06:03:41.796Z,39.20
2022-12-05T06:04:45.597Z,37.80
2022-12-05T06:06:01.130Z,38.91
2022-12-05T06:07:08.186Z,39.96
2022-12-05T06:08:14.645Z,40.83
2022-12-05T06:09:21.005Z,40.01
2022-12-05T06:10:24.687Z,40.02
2022-12-05T06:11:32.101Z,39.29
2022-12-05T06:12:39.737Z,38.64
2022-12-05T06:13:44.092Z,38.58
2022-12-05T06:14:51.907Z,39.59
2022-12-05T06:15:58.192Z,40.08
2022-12-05T06:17:03.158Z,39.73
2022-12-05T06:18:10.334Z,39.68
2022-12-05T06:19:14.373Z,38.95
2022-12-05T06:20:20.794Z,38.61
2022-12-05T06:21:26.130Z,38.64
2022-12-05T06:22:36.289Z,39.66
2022-12-05T06:23:40.821Z,38.50
2022-12-05T06:24:47.044Z,41.77
2022-12-05T06:25:56.953Z,41.22
2022-12-05T06:27:03.086Z,41.78
2022-12-05T06:28:09.553Z,42.15
2022-12-05T06:29:14.324Z,42.17
2022-12-05T06:30:21.018Z,43.14
2022-12-05T06:31:28.632Z,41.83
2022-12-05T06:32:34.984Z,44.08
2022-12-05T06:33:41.136Z,44.20
2022-12-05T06:34:48.289Z,44.89
2022-12-05T06:36:04.680Z,46.25
2022-12-05T06:37:11.393Z,42.13
2022-12-05T06:38:17.667Z,41.94
2022-12-05T06:39:25.051Z,42.74
2022-12-05T06:40:30.113Z,44.58
2022-12-05T06:41:36.670Z,44.72
2022-12-05T06:42:43.346Z,45.98
2022-12-05T06:43:50.804Z,44.08
2022-12-05T06:44:54.496Z,42.68
2022-12-05T06:46:01.680Z,42.91
2022-12-05T06:47:05.912Z,41.18
2022-12-05T06:48:12.237Z,43.38
2022-12-05T06:49:16.088Z,44.41
2022-12-05T06:50:23.054Z,43.39
2022-12-05T06:51:27.771Z,45.02
2022-12-05T06:52:33.835Z,43.32
2022-12-05T06:53:41.017Z,43.54
2022-12-05T06:54:49.399Z,44.61
2022-12-05T06:56:00.625Z,44.19
2022-12-05T06:57:07.870Z,46.68
2022-12-05T06:58:13.893Z,47.01
2022-12-05T06:59:20.447Z,45.96
2022-12-05T07:00:39.433Z,44.37
2022-12-05T07:01:44.218Z,46.73
2022-12-05T07:02:55.449Z,45.41
2022-12-05T07:03:59.286Z,46.32
2022-12-05T07:05:05.558Z,46.33
2022-12-05T07:06:11.695Z,47.51
2022-12-05T07:07:18.008Z,47.02
2022-12-05T07:08:23.133Z,44.62
2022-12-05T07:09:45.571Z,45.79
2022-12-05T07:10:56.177Z,45.55
2022-12-05T07:11:59.856Z,45.85
2022-12-05T07:13:06.130Z,45.48
2022-12-05T07:14:19.278Z,47.07
2022-12-05T07:15:36.637Z,47.07
2022-12-05T07:16:40.176Z,45.43
2022-12-05T07:17:46.444Z,47.76
2022-12-05T07:18:50.578Z,45.38
2022-12-05T07:19:58.256Z,47.29
2022-12-05T07:21:14.792Z,46.84
2022-12-05T07:22:23.524Z,46.35
2022-12-05T07:23:34.199Z,47.25
2022-12-05T07:24:43.162Z,47.26
2022-12-05T07:25:47.500Z,48.76
2022-12-05T07:26:53.824Z,49.49
2022-12-05T07:27:57.476Z,48.22
2022-12-05T07:29:05.237Z,49.89
2022-12-05T07:30:10.608Z,52.93
2022-12-05T07:31:22.862Z,57.79
2022-12-05T07:32:26.452Z,64.92
2022-12-05T07:33:33.320Z,65.10
2022-12-05T07:34:36.870Z,58.94
2022-12-05T07:35:43.017Z,52.85
2022-12-05T07:36:49.977Z,52.35
2022-12-05T07:37:53.465Z,52.46
2022-12-05T07:39:01.494Z,52.22
2022-12-05T07:40:10.185Z,49.84
2022-12-05T07:41:23.485Z,49.12
2022-12-05T07:42:30.383Z,48.91
2022-12-05T07:43:36.691Z,48.80
2022-12-05T07:44:42.853Z,49.58
2022-12-05T07:45:46.637Z,49.21
2022-12-05T07:46:52.720Z,47.39
2022-12-05T07:47:57.197Z,48.02
2022-12-05T07:49:03.379Z,48.00
2022-12-05T07:50:12.032Z,50.36
2022-12-05T07:51:18.328Z,49.40
2022-12-05T07:52:24.393Z,51.01
2022-12-05T07:53:31.380Z,53.96
2022-12-05T07:54:37.528Z,54.88
2022-12-05T07:55:46.165Z,54.93
2022-12-05T07:56:49.626Z,55.82
2022-12-05T07:57:55.704Z,56.18
2022-12-05T07:59:00.064Z,53.72
2022-12-05T08:00:10.122Z,54.37
2022-12-05T08:01:20.670Z,55.21
2022-12-05T08:02:27.714Z,53.99
2022-12-05T08:03:31.533Z,55.58
2022-12-05T08:04:38.608Z,55.74
2022-12-05T08:05:42.083Z,55.09
2022-12-05T08:06:48.359Z,53.54
2022-12-05T08:07:56.154Z,49.47
2022-12-05T08:08:59.821Z,49.60
2022-12-05T08:10:07.813Z,51.28
2022-12-05T08:11:17.660Z,48.19
2022-12-05T08:12:23.776Z,47.83
2022-12-05T08:13:29.924Z,47.13
2022-12-05T08:14:36.061Z,49.52
2022-12-05T08:15:40.329Z,50.87
2022-12-05T08:16:46.450Z,52.31
2022-12-05T08:17:52.626Z,51.51
2022-12-05T08:18:57.163Z,49.43
2022-12-05T08:20:03.253Z,50.78
2022-12-05T08:21:12.406Z,50.24
2022-12-05T08:22:18.666Z,49.95
2022-12-05T08:23:23.541Z,50.88
2022-12-05T08:24:30.052Z,48.05
2022-12-05T08:25:35.126Z,48.25
2022-12-05T08:26:45.620Z,48.74
2022-12-05T08:27:51.062Z,48.20
2022-12-05T08:29:02.025Z,46.29
2022-12-05T08:30:10.763Z,47.24
2022-12-05T08:31:18.418Z,48.18
2022-12-05T08:32:25.508Z,48.24
2022-12-05T08:33:30.835Z,46.99
2022-12-05T08:34:36.944Z,45.83
2022-12-05T08:35:40.330Z,46.79
2022-12-05T08:36:47.476Z,47.76
2022-12-05T08:37:55.530Z,47.96
2022-12-05T08:39:04.769Z,46.34
2022-12-05T08:40:10.147Z,54.62
2022-12-05T08:41:20.447Z,56.02
2022-12-05T08:42:29.315Z,44.73
2022-12-05T08:43:37.359Z,48.16
2022-12-05T08:44:40.885Z,46.02
2022-12-05T08:45:53.536Z,45.53
2022-12-05T08:47:00.827Z,45.86
2022-12-05T08:48:07.348Z,46.39
2022-12-05T08:49:12.867Z,47.00
2022-12-05T08:50:19.414Z,46.20
2022-12-05T08:51:22.923Z,54.43
2022-12-05T08:52:29.427Z,55.19
2022-12-05T08:53:40.943Z,58.50
2022-12-05T08:54:51.495Z,51.42
2022-12-05T08:55:57.702Z,55.47
2022-12-05T08:57:04.076Z,51.84
2022-12-05T08:58:10.359Z,53.70
2022-12-05T08:59:16.470Z,59.43
2022-12-05T09:00:21.766Z,64.53
2022-12-05T09:01:32.172Z,62.02
2022-12-05T09:02:38.586Z,59.80
2022-12-05T09:03:47.865Z,63.68
2022-12-05T09:04:55.212Z,67.68
2022-12-05T09:06:08.323Z,78.60
2022-12-05T09:07:14.631Z,77.60
2022-12-05T09:08:20.797Z,80.08
2022-12-05T09:09:27.880Z,76.86
2022-12-05T09:10:35.523Z,71.57
2022-12-05T09:11:49.113Z,55.64
2022-12-05T09:12:52.837Z,49.38
2022-12-05T09:14:05.103Z,48.03
2022-12-05T09:15:15.008Z,48.34
2022-12-05T09:16:22.675Z,48.75
2022-12-05T09:17:29.703Z,46.67
2022-12-05T09:18:33.378Z,45.38
2022-12-05T09:19:39.575Z,44.22
2022-12-05T09:20:45.706Z,43.27
2022-12-05T09:21:52.129Z,45.73
2022-12-05T09:22:58.979Z,43.91
2022-12-05T09:24:02.677Z,44.53
2022-12-05T09:25:12.977Z,45.18
2022-12-05T09:26:22.054Z,43.65
2022-12-05T09:27:28.135Z,44.74
2022-12-05T09:28:34.391Z,45.58
2022-12-05T09:29:43.244Z,46.80
2022-12-05T09:30:55.655Z,44.15
2022-12-05T09:32:01.758Z,46.18
2022-12-05T09:33:05.218Z,47.18
2022-12-05T09:34:14.314Z,44.32
2022-12-05T09:35:18.102Z,44.39
2022-12-05T09:36:27.540Z,48.79
2022-12-05T09:37:39.145Z,47.45
2022-12-05T09:38:47.058Z,50.67
2022-12-05T09:39:57.055Z,50.24
2022-12-05T09:41:46.824Z,49.82
2022-12-05T09:43:09.900Z,78.42
2022-12-05T09:44:47.446Z,73.05
2022-12-05T09:46:07.802Z,60.77
2022-12-05T09:47:32.590Z,57.30
2022-12-05T09:48:45.212Z,50.99
2022-12-05T09:49:57.917Z,51.77
2022-12-05T09:51:07.336Z,53.10
2022-12-05T09:52:27.402Z,51.15
2022-12-05T09:53:44.786Z,52.04
2022-12-05T09:54:49.558Z,46.47
2022-12-05T09:56:06.981Z,45.72
2022-12-05T09:57:13.441Z,48.11
2022-12-05T09:58:44.707Z,48.94
2022-12-05T09:59:51.641Z,48.20
2022-12-05T10:01:07.323Z,47.75
2022-12-05T10:02:41.196Z,49.12
2022-12-05T10:04:08.636Z,48.28
2022-12-05T10:05:28.193Z,47.45
2022-12-05T10:06:47.050Z,46.24
2022-12-05T10:08:12.124Z,49.97
2022-12-05T10:09:45.037Z,48.61
2022-12-05T10:11:05.361Z,47.95
2022-12-05T10:12:40.551Z,48.01
2022-12-05T10:14:06.744Z,46.69
2022-12-05T10:15:32.582Z,47.89
2022-12-05T10:16:52.727Z,46.59
2022-12-05T10:18:14.079Z,48.67
2022-12-05T10:19:32.017Z,46.98
2022-12-05T10:20:51.093Z,51.24
2022-12-05T10:22:07.661Z,51.71
2022-12-05T10:23:55.573Z,50.85
2022-12-05T10:24:59.896Z,54.19
2022-12-05T10:26:13.150Z,52.92
2022-12-05T10:27:27.541Z,52.27
2022-12-05T10:28:45.484Z,52.99
2022-12-05T10:30:07.671Z,50.98
2022-12-05T10:31:24.808Z,52.48
2022-12-05T10:32:40.340Z,53.28
2022-12-05T10:34:01.816Z,51.05
2022-12-05T10:35:22.665Z,49.36
2022-12-05T10:36:29.565Z,50.84
2022-12-05T10:37:35.862Z,51.57
2022-12-05T10:38:41.467Z,51.26
2022-12-05T10:39:49.477Z,51.02
2022-12-05T10:41:02.591Z,51.07
2022-12-05T10:42:13.169Z,53.21
2022-12-05T10:43:29.583Z,51.63
2022-12-05T10:44:41.938Z,52.76
2022-12-05T10:45:51.704Z,54.04
2022-12-05T10:47:02.043Z,53.57
2022-12-05T10:48:08.972Z,52.58
2022-12-05T10:49:16.257Z,53.97
2022-12-05T10:50:35.886Z,51.32
2022-12-05T10:51:43.892Z,52.10
2022-12-05T10:52:48.897Z,51.00
2022-12-05T10:53:56.522Z,52.54
2022-12-05T10:55:09.853Z,51.86
2022-12-05T10:56:45.280Z,50.81
2022-12-05T10:57:56.173Z,55.39
2022-12-05T10:59:00.440Z,56.13
2022-12-05T11:00:18.170Z,58.95
2022-12-05T11:01:28.746Z,59.37
2022-12-05T11:02:38.594Z,56.50
2022-12-05T11:03:44.782Z,55.81
2022-12-05T11:04:52.287Z,52.52
2022-12-05T11:06:02.960Z,49.84
2022-12-05T11:07:10.176Z,49.48
2022-12-05T11:08:48.217Z,49.53
2022-12-05T11:09:52.235Z,50.48
2022-12-05T11:11:10.679Z,51.22
2022-12-05T11:12:23.311Z,50.27
2022-12-05T11:13:29.996Z,51.27
2022-12-05T11:14:37.370Z,52.49
2022-12-05T11:15:55.272Z,57.72
2022-12-05T11:17:06.235Z,57.15
2022-12-05T11:18:33.459Z,55.03
2022-12-05T11:19:41.686Z,54.60
2022-12-05T11:20:49.713Z,52.99
2022-12-05T11:21:57.983Z,51.99
2022-12-05T11:23:32.464Z,57.43
2022-12-05T11:24:42.840Z,59.35
2022-12-05T11:26:04.184Z,58.03
2022-12-05T11:27:31.554Z,59.69
2022-12-05T11:28:38.675Z,57.81
2022-12-05T11:29:48.606Z,56.70
2022-12-05T11:31:03.625Z,59.04
2022-12-05T11:32:29.648Z,59.86
2022-12-05T11:33:40.880Z,59.00
2022-12-05T11:34:58.497Z,61.51
2022-12-05T11:36:17.153Z,68.31
2022-12-05T11:37:35.437Z,77.10
2022-12-05T11:38:45.304Z,73.83
2022-12-05T11:39:55.540Z,73.72
2022-12-05T11:41:41.055Z,70.80
2022-12-05T11:43:22.881Z,66.73
2022-12-05T11:45:10.871Z,67.36
2022-12-05T11:46:37.895Z,64.61
2022-12-05T11:48:25.297Z,63.24
2022-12-05T11:50:10.879Z,60.78
2022-12-05T11:51:44.775Z,60.34
2022-12-05T11:53:19.690Z,60.17
2022-12-05T11:55:08.741Z,59.40
2022-12-05T11:56:39.400Z,56.69
2022-12-05T11:58:11.330Z,56.56
2022-12-05T11:59:53.022Z,56.77
2022-12-05T12:01:21.659Z,56.33
2022-12-05T12:03:00.662Z,59.85
2022-12-05T12:04:42.615Z,59.00
2022-12-05T12:06:06.515Z,62.24
2022-12-05T12:07:41.841Z,63.21
2022-12-05T12:09:15.987Z,63.10
2022-12-05T12:10:36.253Z,65.81
2022-12-05T12:11:55.096Z,66.19
2022-12-05T12:13:33.390Z,64.81
2022-12-05T12:14:59.799Z,66.11
2022-12-05T12:16:25.906Z,66.19
2022-12-05T12:17:53.357Z,64.54
2022-12-05T12:19:34.365Z,69.28
2022-12-05T12:21:09.760Z,67.74
2022-12-05T12:22:50.576Z,68.05
2022-12-05T12:24:18.721Z,67.56
2022-12-05T12:25:45.422Z,68.31
2022-12-05T12:27:15.130Z,76.96
2022-12-05T12:28:42.473Z,92.40
2022-12-05T12:30:08.297Z,129.31
2022-12-05T12:31:45.917Z,97.28
2022-12-05T12:33:13.221Z,90.99
2022-12-05T12:34:51.937Z,98.27
2022-12-05T12:36:18.881Z,109.58
2022-12-05T12:37:44.717Z,141.11
2022-12-05T12:39:26.683Z,136.23
2022-12-05T12:40:46.868Z,107.28
2022-12-05T12:42:17.106Z,101.68
2022-12-05T12:43:54.511Z,84.59
2022-12-05T12:45:52.334Z,78.27
2022-12-05T12:47:02.134Z,75.45
2022-12-05T12:48:33.822Z,75.52
2022-12-05T12:50:05.304Z,77.06
2022-12-05T12:51:18.306Z,70.55
2022-12-05T12:52:33.225Z,69.34
2022-12-05T12:54:47.328Z,69.41
2022-12-05T12:56:13.234Z,58.70
2022-12-05T12:57:34.425Z,57.70
2022-12-05T12:58:57.337Z,57.85
2022-12-05T13:00:21.779Z,58.73
2022-12-05T13:01:44.244Z,59.88
2022-12-05T13:03:07.097Z,61.54
2022-12-05T13:04:23.567Z,59.66
2022-12-05T13:05:42.233Z,57.21
2022-12-05T13:07:00.294Z,57.69
2022-12-05T13:08:18.632Z,63.94
2022-12-05T13:09:33.380Z,64.46
2022-12-05T13:10:45.048Z,63.24
2022-12-05T13:11:56.521Z,59.57
2022-12-05T13:13:03.026Z,57.80
2022-12-05T13:14:18.828Z,57.72
2022-12-05T13:15:41.184Z,55.29
2022-12-05T13:16:55.084Z,55.68
2022-12-05T13:18:00.164Z,56.06
2022-12-05T13:19:09.815Z,56.23
2022-12-05T13:20:23.634Z,62.00
2022-12-05T13:21:31.662Z,62.30
2022-12-05T13:22:41.256Z,60.31
2022-12-05T13:23:55.241Z,56.41
2022-12-05T13:25:01.629Z,57.19
2022-12-05T13:26:15.610Z,57.98
2022-12-05T13:27:27.394Z,57.21
2022-12-05T13:28:42.308Z,58.63
2022-12-05T13:29:56.876Z,59.41
2022-12-05T13:31:06.693Z,55.77
2022-12-05T13:32:33.878Z,55.11
2022-12-05T13:33:49.661Z,55.43
2022-12-05T13:34:57.939Z,61.49
2022-12-05T13:36:26.356Z,67.06
2022-12-05T13:37:49.052Z,66.22
2022-12-05T13:39:20.114Z,64.05
2022-12-05T13:40:46.732Z,67.16
2022-12-05T13:42:11.737Z,68.47
2022-12-05T13:43:23.320Z,69.54
2022-12-05T13:44:41.006Z,69.57
2022-12-05T13:46:08.330Z,70.03
2022-12-05T13:47:34.375Z,74.38
2022-12-05T13:48:47.468Z,73.81
2022-12-05T13:50:00.840Z,71.93
2022-12-05T13:51:16.614Z,71.89
2022-12-05T13:52:30.694Z,71.29
2022-12-05T13:53:44.053Z,73.82
2022-12-05T13:55:04.302Z,80.68
2022-12-05T13:56:31.181Z,79.56
2022-12-05T13:57:56.578Z,87.45
2022-12-05T13:59:02.968Z,86.55
2022-12-05T14:00:34.462Z,88.53
2022-12-05T14:01:56.132Z,85.77
2022-12-05T14:03:41.063Z,83.70
2022-12-05T14:04:54.099Z,83.20
2022-12-05T14:06:01.771Z,80.56
2022-12-05T14:07:08.622Z,77.91
2022-12-05T14:08:56.595Z,78.06
2022-12-05T14:10:05.718Z,77.15
2022-12-05T14:11:15.475Z,78.35
2022-12-05T14:12:54.176Z,77.37
2022-12-05T14:14:04.682Z,82.25
2022-12-05T14:15:35.496Z,93.32
2022-12-05T14:16:48.640Z,97.89
2022-12-05T14:18:05.185Z,101.20
2022-12-05T14:19:55.588Z,102.41
2022-12-05T14:21:17.992Z,103.64
2022-12-05T14:23:10.881Z,109.78
2022-12-05T14:24:39.104Z,117.02
2022-12-05T14:26:20.864Z,113.48
2022-12-05T14:27:52.710Z,112.21
2022-12-05T14:29:33.998Z,109.48
2022-12-05T14:31:06.010Z,105.63
2022-12-05T14:32:28.557Z,104.64
2022-12-05T14:33:37.673Z,102.75
2022-12-05T14:35:01.983Z,101.06
2022-12-05T14:36:20.606Z,101.60
2022-12-05T14:37:33.952Z,97.32
2022-12-05T14:38:43.372Z,101.75
2022-12-05T14:39:57.372Z,96.79
2022-12-05T14:41:35.198Z,98.46
2022-12-05T14:42:48.124Z,95.74
2022-12-05T14:44:03.817Z,93.93
2022-12-05T14:45:36.145Z,94.70
2022-12-05T14:46:49.255Z,95.20
2022-12-05T14:48:00.999Z,96.79
2022-12-05T14:49:56.635Z,96.95
2022-12-05T14:51:04.994Z,98.98
2022-12-05T14:52:20.190Z,102.56
2022-12-05T14:53:39.845Z,105.90
2022-12-05T14:54:45.903Z,107.69
2022-12-05T14:55:57.283Z,110.53
2022-12-05T14:57:18.367Z,117.16
2022-12-05T14:58:39.923Z,120.68
2022-12-05T14:59:59.202Z,124.31
2022-12-05T15:01:09.455Z,118.99
2022-12-05T15:02:28.675Z,117.36
2022-12-05T15:03:41.216Z,118.34
2022-12-05T15:04:59.485Z,121.71
2022-12-05T15:06:16.281Z,123.02
2022-12-05T15:07:34.169Z,129.01
2022-12-05T15:08:55.068Z,132.35
2022-12-05T15:10:07.758Z,131.95
2022-12-05T15:11:28.571Z,129.79
2022-12-05T15:12:50.058Z,126.17
2022-12-05T15:13:59.576Z,117.82
2022-12-05T15:15:20.064Z,116.00
2022-12-05T15:16:25.289Z,108.91
2022-12-05T15:17:43.544Z,101.97
2022-12-05T15:18:56.777Z,100.82
2022-12-05T15:20:15.830Z,100.19
2022-12-05T15:21:32.114Z,96.55
2022-12-05T15:22:41.192Z,92.95
2022-12-05T15:23:48.890Z,94.07
2022-12-05T15:24:55.009Z,95.38
2022-12-05T15:26:17.566Z,91.03
2022-12-05T15:27:28.035Z,91.71
2022-12-05T15:28:34.199Z,96.93
2022-12-05T15:29:42.877Z,99.99
2022-12-05T15:30:58.980Z,101.57
2022-12-05T15:32:06.853Z,102.99
2022-12-05T15:33:17.024Z,104.44
2022-12-05T15:34:31.756Z,107.30
2022-12-05T15:35:38.732Z,111.88
2022-12-05T15:36:53.718Z,117.27
2022-12-05T15:38:09.586Z,121.11
2022-12-05T15:39:26.682Z,121.07
2022-12-05T15:40:40.844Z,124.70
2022-12-05T15:41:49.695Z,118.32
2022-12-05T15:42:59.376Z,112.63
2022-12-05T15:44:09.025Z,114.20
2022-12-05T15:45:23.740Z,114.29
2022-12-05T15:46:32.156Z,111.49
2022-12-05T15:47:38.307Z,112.19
2022-12-05T15:48:41.743Z,112.90
2022-12-05T15:49:49.858Z,112.86
2022-12-05T15:50:57.581Z,110.89
2022-12-05T15:52:29.857Z,109.95
2022-12-05T15:53:46.814Z,101.56
2022-12-05T15:54:56.806Z,104.63
2022-12-05T15:56:14.896Z,99.19
2022-12-05T15:57:35.340Z,102.34
2022-12-05T15:58:50.649Z,103.68
2022-12-05T16:00:09.181Z,102.72
2022-12-05T16:01:27.357Z,105.67
2022-12-05T16:02:50.140Z,102.51
2022-12-05T16:04:03.094Z,100.41
2022-12-05T16:05:24.602Z,94.86
2022-12-05T16:06:40.612Z,94.99
2022-12-05T16:07:47.617Z,94.70
2022-12-05T16:08:53.051Z,95.39
2022-12-05T16:10:03.384Z,93.26
2022-12-05T16:11:09.969Z,92.09
2022-12-05T16:12:30.401Z,89.98
2022-12-05T16:13:36.914Z,90.71